createdAt,value
2022-11-24T00:01:21.819Z,86.31
2022-11-24T00:03:55.822Z,86.41
2022-11-24T00:06:24.485Z,86.68
2022-11-24T00:08:53.096Z,86.31
2022-11-24T00:11:23.316Z,86.88
2022-11-24T00:13:52.813Z,86.46
2022-11-24T00:16:23.467Z,86.45
2022-11-24T00:18:54.605Z,86.18
2022-11-24T00:21:23.752Z,86.39
2022-11-24T00:23:52.803Z,86.31
2022-11-24T00:26:22.833Z,86.46
2022-11-24T00:28:54.034Z,86.38
2022-11-24T00:31:23.754Z,86.35
2022-11-24T00:33:53.705Z,86.70
2022-11-24T00:36:23.107Z,86.63
2022-11-24T00:38:54.852Z,86.46
2022-11-24T00:41:23.268Z,86.75
2022-11-24T00:43:53.254Z,86.65
2022-11-24T00:46:21.972Z,86.53
2022-11-24T00:48:50.378Z,86.58
2022-11-24T00:51:19.871Z,86.82
2022-11-24T00:53:48.640Z,86.98
2022-11-24T00:56:16.775Z,86.61
2022-11-24T00:58:44.774Z,86.62
2022-11-24T01:01:16.826Z,86.78
2022-11-24T01:03:46.732Z,86.57
2022-11-24T01:06:17.555Z,86.65
2022-11-24T01:08:46.651Z,86.68
2022-11-24T01:11:17.713Z,86.69
2022-11-24T01:13:48.129Z,86.94
2022-11-24T01:16:20.677Z,86.93
2022-11-24T01:18:48.811Z,86.94
2022-11-24T01:21:17.290Z,86.68
2022-11-24T01:23:46.659Z,86.83
2022-11-24T01:26:17.575Z,86.84
2022-11-24T01:28:47.354Z,86.94
2022-11-24T01:31:17.685Z,86.73
2022-11-24T01:33:45.824Z,86.66
2022-11-24T01:36:14.013Z,86.95
2022-11-24T01:38:42.246Z,86.92
2022-11-24T01:41:13.670Z,86.80
2022-11-24T01:43:42.541Z,86.69
2022-11-24T01:46:20.764Z,87.10
2022-11-24T01:48:53.974Z,86.84
2022-11-24T01:51:25.913Z,86.93
2022-11-24T01:53:58.386Z,87.00
2022-11-24T01:56:27.807Z,87.01
2022-11-24T01:58:59.331Z,86.99
2022-11-24T02:01:31.546Z,86.73
2022-11-24T02:04:02.448Z,87.04
2022-11-24T02:06:33.540Z,87.04
2022-11-24T02:09:08.202Z,86.90
2022-11-24T02:11:39.409Z,87.03
2022-11-24T02:14:10.736Z,86.77
2022-11-24T02:16:42.727Z,86.66
2022-11-24T02:19:23.342Z,87.03
2022-11-24T02:21:51.411Z,86.73
2022-11-24T02:24:25.327Z,87.11
2022-11-24T02:26:54.901Z,87.08
2022-11-24T02:29:23.112Z,87.10
2022-11-24T02:31:56.395Z,87.07
2022-11-24T02:34:24.436Z,87.13
2022-11-24T02:36:52.565Z,87.41
2022-11-24T02:39:21.015Z,86.99
2022-11-24T02:41:53.368Z,87.43
2022-11-24T02:44:28.961Z,87.29
2022-11-24T02:47:03.688Z,87.13
2022-11-24T02:49:31.734Z,86.93
2022-11-24T02:52:00.012Z,87.38
2022-11-24T02:54:28.067Z,87.23
2022-11-24T02:56:56.247Z,87.01
2022-11-24T02:59:25.761Z,87.00
2022-11-24T03:01:55.425Z,87.36
2022-11-24T03:04:23.575Z,87.30
2022-11-24T03:06:51.661Z,87.20
2022-11-24T03:09:19.834Z,87.41
2022-11-24T03:11:48.003Z,87.27
2022-11-24T03:14:16.055Z,87.27
2022-11-24T03:16:45.476Z,87.36
2022-11-24T03:19:13.686Z,87.55
2022-11-24T03:21:41.700Z,86.97
2022-11-24T03:24:10.223Z,87.60
2022-11-24T03:26:38.254Z,87.43
2022-11-24T03:29:06.328Z,87.40
2022-11-24T03:31:34.467Z,87.56
2022-11-24T03:34:03.966Z,87.27
2022-11-24T03:36:32.010Z,87.44
2022-11-24T03:39:00.109Z,87.60
2022-11-24T03:41:28.245Z,87.56
2022-11-24T03:43:56.305Z,87.24
2022-11-24T03:46:24.595Z,87.46
2022-11-24T03:48:52.635Z,87.07
2022-11-24T03:51:22.080Z,87.46
2022-11-24T03:53:50.146Z,87.59
2022-11-24T03:56:18.338Z,87.76
2022-11-24T03:58:46.488Z,87.57
2022-11-24T04:01:14.605Z,87.48
2022-11-24T04:03:42.638Z,87.69
2022-11-24T04:06:10.989Z,87.28
2022-11-24T04:08:40.379Z,87.64
2022-11-24T04:11:08.457Z,87.54
2022-11-24T04:13:35.496Z,87.69
2022-11-24T04:16:06.749Z,87.62
2022-11-24T04:18:34.671Z,87.59
2022-11-24T04:21:02.556Z,87.33
2022-11-24T04:23:30.493Z,87.70
2022-11-24T04:25:59.760Z,87.59
2022-11-24T04:28:28.121Z,87.73
2022-11-24T04:30:56.054Z,87.66
2022-11-24T04:33:24.014Z,87.75
2022-11-24T04:35:54.339Z,87.71
2022-11-24T04:39:19.780Z,87.75
2022-11-24T04:41:11.818Z,87.83
2022-11-24T04:43:40.932Z,87.71
2022-11-24T04:46:12.492Z,87.60
2022-11-24T04:48:40.489Z,87.56
2022-11-24T04:51:08.516Z,87.88
2022-11-24T04:53:36.586Z,87.93
2022-11-24T04:56:06.072Z,87.90
2022-11-24T04:58:35.377Z,87.84
2022-11-24T05:01:03.294Z,87.84
2022-11-24T05:03:31.226Z,87.80
2022-11-24T05:06:00.084Z,87.93
2022-11-24T05:08:28.092Z,87.76
2022-11-24T05:10:55.966Z,87.89
2022-11-24T05:13:23.896Z,87.85
2022-11-24T05:15:53.180Z,88.11
2022-11-24T05:18:22.243Z,87.86
2022-11-24T05:20:50.083Z,88.29
2022-11-24T05:23:18.073Z,87.92
2022-11-24T05:25:47.772Z,87.92
2022-11-24T05:28:16.072Z,88.00
2022-11-24T05:30:44.184Z,87.87
2022-11-24T05:33:18.939Z,88.00
2022-11-24T05:35:47.173Z,88.11
2022-11-24T05:38:15.409Z,87.94
2022-11-24T05:40:43.542Z,87.93
2022-11-24T05:43:12.870Z,88.19
2022-11-24T05:45:40.739Z,88.05
2022-11-24T05:48:11.470Z,88.07
2022-11-24T05:50:41.007Z,88.05
2022-11-24T05:53:11.157Z,88.14
2022-11-24T05:55:39.168Z,88.27
2022-11-24T05:58:09.097Z,88.21
2022-11-24T06:00:37.415Z,88.06
2022-11-24T06:03:05.842Z,88.26
2022-11-24T06:05:34.069Z,88.20
2022-11-24T06:08:03.369Z,88.29
2022-11-24T06:10:31.447Z,88.06
2022-11-24T06:12:59.300Z,88.24
2022-11-24T06:15:27.183Z,88.22
2022-11-24T06:17:56.052Z,88.23
2022-11-24T06:20:27.204Z,88.23
2022-11-24T06:22:58.886Z,88.28
2022-11-24T06:25:28.611Z,88.41
2022-11-24T06:27:56.477Z,88.34
2022-11-24T06:30:24.437Z,88.14
2022-11-24T06:32:55.889Z,88.25
2022-11-24T06:35:23.807Z,88.32
2022-11-24T06:37:51.653Z,88.36
2022-11-24T06:40:19.673Z,88.51
2022-11-24T06:42:52.605Z,88.47
2022-11-24T06:45:20.566Z,88.28
2022-11-24T06:47:48.395Z,88.66
2022-11-24T06:50:16.778Z,88.53
2022-11-24T06:52:44.633Z,88.18
2022-11-24T06:55:12.673Z,88.50
2022-11-24T06:57:40.593Z,88.57
2022-11-24T07:00:11.838Z,88.03
2022-11-24T07:02:45.372Z,88.45
2022-11-24T07:05:13.836Z,88.48
2022-11-24T07:07:41.864Z,88.43
2022-11-24T07:10:09.909Z,88.74
2022-11-24T07:12:37.790Z,88.50
2022-11-24T07:15:06.894Z,88.27
2022-11-24T07:17:38.544Z,88.49
2022-11-24T07:20:08.370Z,88.67
2022-11-24T07:22:36.452Z,88.81
2022-11-24T07:25:07.359Z,88.34
2022-11-24T07:27:35.436Z,88.25
2022-11-24T07:30:03.460Z,88.34
2022-11-24T07:32:32.879Z,88.41
2022-11-24T07:35:02.158Z,88.85
2022-11-24T07:37:31.837Z,88.66
2022-11-24T07:39:59.923Z,88.47
2022-11-24T07:42:28.735Z,88.36
2022-11-24T07:44:56.717Z,88.50
2022-11-24T07:47:24.621Z,88.57
2022-11-24T07:49:52.498Z,88.80
2022-11-24T07:52:21.765Z,88.63
2022-11-24T07:54:49.654Z,88.36
2022-11-24T07:57:17.522Z,88.67
2022-11-24T07:59:45.433Z,88.44
2022-11-24T08:02:14.248Z,88.96
2022-11-24T08:04:42.121Z,88.42
2022-11-24T08:07:10.007Z,88.83
2022-11-24T08:09:39.326Z,88.29
2022-11-24T08:12:07.833Z,88.61
2022-11-24T08:14:35.914Z,88.25
2022-11-24T08:17:04.027Z,89.36
2022-11-24T08:19:33.210Z,89.08
2022-11-24T08:22:01.060Z,88.50
2022-11-24T08:24:29.064Z,88.98
2022-11-24T08:26:58.384Z,88.88
2022-11-24T08:29:29.488Z,88.82
2022-11-24T08:31:58.347Z,88.49
2022-11-24T08:34:29.558Z,89.15
2022-11-24T08:36:57.486Z,88.35
2022-11-24T08:39:25.380Z,88.47
2022-11-24T08:41:53.262Z,89.16
2022-11-24T08:44:22.473Z,89.41
2022-11-24T08:46:50.648Z,89.18
2022-11-24T08:49:18.960Z,88.95
2022-11-24T08:51:48.564Z,88.43
2022-11-24T08:54:18.680Z,88.69
2022-11-24T08:56:47.172Z,88.88
2022-11-24T08:59:15.532Z,88.55
2022-11-24T09:01:45.332Z,88.74
2022-11-24T09:04:13.558Z,88.86
2022-11-24T09:06:41.581Z,89.00
2022-11-24T09:09:10.958Z,88.82
2022-11-24T09:11:39.001Z,89.03
2022-11-24T09:14:07.180Z,88.52
2022-11-24T09:16:35.385Z,88.90
2022-11-24T09:19:06.420Z,88.84
2022-11-24T09:21:37.783Z,89.10
2022-11-24T09:24:07.301Z,88.71
2022-11-24T09:26:38.988Z,88.82
2022-11-24T09:29:08.988Z,88.70
2022-11-24T09:31:39.280Z,88.81
2022-11-24T09:34:12.144Z,88.82
2022-11-24T09:36:40.039Z,88.85
2022-11-24T09:39:07.973Z,89.00
2022-11-24T09:42:08.564Z,89.06
2022-11-24T09:44:53.961Z,89.01
2022-11-24T09:47:32.417Z,88.87
2022-11-24T09:50:05.210Z,89.04
2022-11-24T09:52:40.602Z,88.74
2022-11-24T09:55:22.943Z,88.84
2022-11-24T09:57:57.202Z,88.89
2022-11-24T10:00:25.406Z,89.29
2022-11-24T10:02:53.342Z,88.85
2022-11-24T10:05:27.496Z,89.26
2022-11-24T10:08:08.709Z,88.91
2022-11-24T10:10:48.989Z,88.97
2022-11-24T10:13:31.754Z,89.26
2022-11-24T10:16:07.593Z,89.44
2022-11-24T10:18:46.591Z,89.42
2022-11-24T10:21:35.860Z,89.16
2022-11-24T10:24:28.291Z,89.38
2022-11-24T10:27:03.853Z,89.37
2022-11-24T10:29:37.668Z,89.12
2022-11-24T10:32:14.366Z,88.74
2022-11-24T10:34:46.008Z,89.34
2022-11-24T10:37:22.681Z,89.24
2022-11-24T10:40:00.214Z,89.12
2022-11-24T10:42:31.419Z,89.45
2022-11-24T10:45:03.376Z,88.87
2022-11-24T10:47:32.474Z,89.32
2022-11-24T10:50:03.839Z,89.50
2022-11-24T10:52:41.075Z,88.89
2022-11-24T10:55:09.225Z,89.34
2022-11-24T10:57:39.324Z,88.95
2022-11-24T11:00:34.245Z,89.41
2022-11-24T11:03:18.532Z,88.86
2022-11-24T11:05:51.968Z,89.43
2022-11-24T11:08:25.541Z,89.31
2022-11-24T11:11:14.250Z,89.30
2022-11-24T11:14:01.695Z,89.24
2022-11-24T11:16:38.053Z,89.31
2022-11-24T11:19:47.923Z,89.07
2022-11-24T11:22:20.307Z,89.12
2022-11-24T11:25:03.080Z,89.83
2022-11-24T11:27:31.002Z,89.31
2022-11-24T11:36:12.298Z,88.98
2022-11-24T11:38:41.496Z,88.96
2022-11-24T11:41:20.065Z,89.50
2022-11-24T11:43:51.263Z,89.10
2022-11-24T11:46:19.207Z,89.17
2022-11-24T11:48:49.008Z,89.35
2022-11-24T11:51:33.494Z,89.15
2022-11-24T11:54:10.674Z,89.03
2022-11-24T11:56:44.360Z,89.21
2022-11-24T11:59:43.091Z,89.19
2022-11-24T12:02:51.711Z,89.13
2022-11-24T12:05:31.195Z,89.10
2022-11-24T12:08:21.754Z,89.15
2022-11-24T12:10:58.760Z,89.07
2022-11-24T12:13:57.252Z,89.45
2022-11-24T12:16:34.837Z,88.94
2022-11-24T12:19:28.635Z,89.12
2022-11-24T12:22:05.488Z,88.98
2022-11-24T12:24:44.766Z,89.05
2022-11-24T12:27:25.177Z,89.00
2022-11-24T12:30:06.051Z,88.96
2022-11-24T12:32:56.273Z,89.00
2022-11-24T12:35:29.861Z,88.94
2022-11-24T12:38:08.536Z,88.99
2022-11-24T12:41:18.264Z,88.97
2022-11-24T12:43:51.329Z,88.90
2022-11-24T12:46:29.378Z,88.85
2022-11-24T12:49:09.686Z,89.05
2022-11-24T12:51:40.943Z,88.90
2022-11-24T12:54:16.854Z,88.86
2022-11-24T12:56:50.464Z,88.90
2022-11-24T12:59:35.330Z,88.94
2022-11-24T13:02:21.948Z,88.83
2022-11-24T13:04:56.014Z,88.92
2022-11-24T13:07:35.850Z,88.76
2022-11-24T13:10:54.086Z,88.87
2022-11-24T13:13:17.813Z,88.73
2022-11-24T13:19:10.345Z,88.89
2022-11-24T13:21:51.751Z,88.97
2022-11-24T13:24:25.857Z,88.51
2022-11-24T13:26:56.266Z,88.52
2022-11-24T13:29:32.964Z,88.50
2022-11-24T13:32:34.094Z,88.71
2022-11-24T13:35:14.417Z,88.72
2022-11-24T13:37:52.793Z,88.63
2022-11-24T13:40:54.172Z,88.78
2022-11-24T13:43:27.940Z,88.68
2022-11-24T13:45:55.878Z,88.54
2022-11-24T13:49:02.587Z,88.87
2022-11-24T13:51:31.818Z,88.81
2022-11-24T13:54:01.083Z,88.41
2022-11-24T13:56:31.529Z,88.50
2022-11-24T13:59:02.460Z,88.62
2022-11-24T14:01:32.479Z,88.84
2022-11-24T14:04:29.339Z,88.80
2022-11-24T14:07:05.574Z,88.53
2022-11-24T14:09:38.337Z,88.42
2022-11-24T14:12:13.802Z,88.64
2022-11-24T14:14:42.346Z,88.58
2022-11-24T14:17:38.966Z,88.57
2022-11-24T14:20:23.021Z,88.46
2022-11-24T14:22:52.922Z,88.72
2022-11-24T14:25:31.658Z,88.45
2022-11-24T14:28:01.265Z,88.53
2022-11-24T14:30:29.334Z,88.67
2022-11-24T14:32:58.519Z,88.65
2022-11-24T14:35:29.252Z,88.79
2022-11-24T14:37:58.924Z,88.54
2022-11-24T14:40:40.495Z,88.53
2022-11-24T14:43:18.636Z,88.49
2022-11-24T14:45:55.954Z,88.66
2022-11-24T14:48:28.339Z,88.25
2022-11-24T14:51:07.547Z,88.47
2022-11-24T14:53:37.446Z,88.92
2022-11-24T14:56:10.414Z,88.85
2022-11-24T14:58:42.266Z,88.30
2022-11-24T15:01:20.659Z,88.76
2022-11-24T15:04:26.594Z,89.01
2022-11-24T15:07:07.315Z,88.25
2022-11-24T15:09:39.952Z,88.76
2022-11-24T15:12:09.016Z,88.69
2022-11-24T15:14:45.252Z,88.61
2022-11-24T15:17:19.094Z,88.37
2022-11-24T15:19:51.963Z,88.34
2022-11-24T15:22:45.059Z,88.99
2022-11-24T15:25:36.667Z,88.73
2022-11-24T15:28:04.798Z,88.76
2022-11-24T15:30:35.895Z,88.42
2022-11-24T15:33:04.527Z,88.83
2022-11-24T15:35:34.082Z,88.66
2022-11-24T15:38:01.974Z,89.04
2022-11-24T15:40:29.946Z,88.64
2022-11-24T15:43:02.043Z,89.00
2022-11-24T15:45:35.398Z,88.43
2022-11-24T15:48:03.237Z,88.54
2022-11-24T15:50:31.264Z,88.45
2022-11-24T15:53:00.537Z,88.51
2022-11-24T15:55:28.404Z,88.51
2022-11-24T15:57:56.347Z,88.85
2022-11-24T16:00:24.924Z,88.73
2022-11-24T16:02:52.844Z,88.43
2022-11-24T16:05:20.704Z,88.57
2022-11-24T16:07:48.667Z,88.32
2022-11-24T16:10:25.287Z,88.46
2022-11-24T16:12:54.042Z,88.22
2022-11-24T16:15:21.846Z,88.52
2022-11-24T16:17:50.082Z,88.59
2022-11-24T16:20:18.197Z,88.72
2022-11-24T16:22:46.197Z,88.64
2022-11-24T16:25:15.148Z,87.98
2022-11-24T16:27:44.586Z,88.35
2022-11-24T16:30:15.850Z,88.67
2022-11-24T16:32:43.863Z,88.59
2022-11-24T16:35:11.802Z,89.08
2022-11-24T16:37:39.767Z,88.79
2022-11-24T16:40:08.794Z,88.80
2022-11-24T16:42:36.647Z,88.42
2022-11-24T16:45:06.578Z,88.24
2022-11-24T16:47:39.777Z,88.31
2022-11-24T16:50:09.066Z,88.77
2022-11-24T16:52:37.241Z,88.71
2022-11-24T16:55:05.698Z,88.82
2022-11-24T16:57:33.579Z,89.03
2022-11-24T17:00:01.606Z,88.43
2022-11-24T17:02:32.520Z,89.18
2022-11-24T17:05:00.539Z,88.60
2022-11-24T17:07:28.445Z,88.34
2022-11-24T17:09:56.407Z,88.73
2022-11-24T17:12:24.271Z,88.38
2022-11-24T17:15:16.446Z,89.06
2022-11-24T17:18:01.307Z,88.68
2022-11-24T17:20:31.316Z,88.44
2022-11-24T17:22:59.194Z,88.48
2022-11-24T17:25:27.124Z,88.77
2022-11-24T17:27:55.044Z,88.68
2022-11-24T17:30:22.950Z,89.00
2022-11-24T17:32:56.604Z,88.35
2022-11-24T17:35:25.066Z,88.75
2022-11-24T17:37:52.900Z,88.61
2022-11-24T17:40:28.235Z,89.01
2022-11-24T17:42:59.335Z,88.49
2022-11-24T17:45:28.290Z,89.01
2022-11-24T17:47:57.638Z,88.78
2022-11-24T17:50:26.504Z,89.27
2022-11-24T17:52:54.871Z,88.56
2022-11-24T17:55:22.874Z,88.55
2022-11-24T17:57:51.017Z,89.04
2022-11-24T18:00:19.756Z,89.30
2022-11-24T18:02:47.713Z,89.28
2022-11-24T18:05:17.263Z,88.69
2022-11-24T18:07:45.322Z,89.11
2022-11-24T18:10:13.311Z,89.28
2022-11-24T18:12:41.603Z,89.16
2022-11-24T18:15:10.215Z,89.07
2022-11-24T18:17:39.731Z,88.52
2022-11-24T18:20:08.976Z,89.20
2022-11-24T18:23:03.969Z,88.94
2022-11-24T18:25:26.408Z,89.35
2022-11-24T18:27:54.406Z,89.00
2022-11-24T18:30:22.366Z,89.17
2022-11-24T18:32:50.316Z,88.69
2022-11-24T18:35:43.076Z,89.39
2022-11-24T18:38:38.454Z,88.77
2022-11-24T18:41:07.604Z,88.79
2022-11-24T18:43:37.580Z,89.19
2022-11-24T18:46:07.151Z,89.42
2022-11-24T18:48:35.785Z,88.84
2022-11-24T18:51:03.716Z,89.44
2022-11-24T18:53:31.682Z,89.47
2022-11-24T18:56:03.052Z,88.97
2022-11-24T18:58:32.865Z,88.91
2022-11-24T19:01:08.669Z,88.88
2022-11-24T19:03:42.392Z,88.66
2022-11-24T19:06:16.049Z,89.58
2022-11-24T19:08:44.930Z,88.98
2022-11-24T19:11:19.624Z,89.14
2022-11-24T19:13:48.732Z,88.98
2022-11-24T19:16:17.254Z,88.79
2022-11-24T19:18:50.238Z,89.06
2022-11-24T19:21:21.552Z,88.69
2022-11-24T19:23:49.992Z,89.20
2022-11-24T19:26:19.408Z,89.77
2022-11-24T19:28:47.344Z,89.09
2022-11-24T19:31:16.877Z,88.85
2022-11-24T19:33:45.325Z,88.82
2022-11-24T19:36:15.076Z,89.47
2022-11-24T19:38:44.322Z,89.09
2022-11-24T19:41:14.419Z,89.35
2022-11-24T19:43:43.961Z,89.60
2022-11-24T19:46:13.518Z,89.28
2022-11-24T19:48:43.978Z,89.29
2022-11-24T19:51:14.758Z,89.33
2022-11-24T19:53:43.352Z,89.41
2022-11-24T19:56:13.177Z,88.96
2022-11-24T19:58:43.494Z,88.91
2022-11-24T20:01:13.641Z,89.24
2022-11-24T20:03:42.611Z,89.51
2022-11-24T20:06:12.593Z,88.99
2022-11-24T20:08:41.684Z,89.35
2022-11-24T20:11:11.689Z,89.22
2022-11-24T20:13:41.374Z,89.06
2022-11-24T20:16:12.139Z,89.15
2022-11-24T20:18:42.427Z,89.55
2022-11-24T20:21:12.352Z,89.37
2022-11-24T20:23:40.533Z,89.19
2022-11-24T20:26:11.332Z,89.15
2022-11-24T20:28:39.914Z,89.37
2022-11-24T20:31:10.876Z,89.26
2022-11-24T20:33:39.670Z,89.63
2022-11-24T20:36:10.455Z,89.30
2022-11-24T20:38:39.798Z,89.34
2022-11-24T20:41:09.915Z,89.33
2022-11-24T20:43:38.698Z,89.52
2022-11-24T20:46:09.084Z,89.12
2022-11-24T20:48:39.015Z,89.40
2022-11-24T20:51:08.775Z,89.12
2022-11-24T20:53:37.343Z,89.30
2022-11-24T20:56:08.386Z,89.41
2022-11-24T20:58:37.634Z,89.48
2022-11-24T21:01:06.841Z,89.53
2022-11-24T21:03:39.702Z,89.33
2022-11-24T21:06:12.879Z,89.25
2022-11-24T21:08:42.293Z,89.33
2022-11-24T21:11:12.360Z,89.50
2022-11-24T21:13:42.217Z,89.39
2022-11-24T21:16:14.870Z,89.33
2022-11-24T21:18:42.579Z,89.51
2022-11-24T21:21:12.379Z,89.48
2022-11-24T21:23:40.657Z,89.13
2022-11-24T21:26:16.208Z,89.13
2022-11-24T21:28:45.900Z,89.12
2022-11-24T21:31:16.059Z,89.48
2022-11-24T21:33:45.922Z,89.12
2022-11-24T21:36:17.639Z,89.27
2022-11-24T21:38:50.268Z,89.12
2022-11-24T21:41:18.417Z,89.52
2022-11-24T21:43:46.419Z,89.54
2022-11-24T21:46:15.182Z,89.20
2022-11-24T21:48:43.501Z,89.29
2022-11-24T21:51:13.817Z,89.64
2022-11-24T21:53:43.550Z,89.57
2022-11-24T21:56:13.750Z,89.25
2022-11-24T21:58:46.599Z,89.10
2022-11-24T22:01:15.207Z,89.61
2022-11-24T22:03:43.398Z,89.53
2022-11-24T22:06:11.414Z,89.12
2022-11-24T22:08:39.411Z,89.80
2022-11-24T22:11:12.913Z,89.38
2022-11-24T22:13:41.459Z,89.13
2022-11-24T22:16:11.240Z,89.28
2022-11-24T22:18:40.631Z,89.36
2022-11-24T22:21:11.038Z,89.54
2022-11-24T22:23:38.972Z,89.31
2022-11-24T22:26:12.246Z,89.48
2022-11-24T22:28:41.247Z,89.64
2022-11-24T22:31:11.942Z,89.40
2022-11-24T22:33:40.053Z,90.03
2022-11-24T22:36:08.931Z,89.17
2022-11-24T22:38:37.286Z,89.51
2022-11-24T22:41:06.856Z,89.26
2022-11-24T22:43:37.410Z,89.09
2022-11-24T22:46:06.199Z,89.57
2022-11-24T22:48:34.441Z,89.51
2022-11-24T22:51:04.106Z,89.16
2022-11-24T22:53:32.091Z,89.90
2022-11-24T22:56:02.357Z,89.49
2022-11-24T22:58:30.794Z,89.66
2022-11-24T23:01:05.216Z,89.36
2022-11-24T23:06:36.163Z,89.17
2022-11-24T23:09:06.497Z,89.29
2022-11-24T23:11:38.400Z,90.12
2022-11-24T23:14:07.965Z,89.12
2022-11-24T23:16:36.116Z,89.60
2022-11-24T23:19:04.288Z,89.06
2022-11-24T23:21:33.623Z,89.72
2022-11-24T23:24:04.657Z,89.79
2022-11-24T23:26:35.046Z,90.00
2022-11-24T23:29:03.256Z,89.56
2022-11-24T23:31:31.534Z,89.58
2022-11-24T23:34:00.960Z,89.30
2022-11-24T23:36:30.155Z,89.18
2022-11-24T23:39:02.052Z,89.91
2022-11-24T23:41:32.688Z,89.74
2022-11-24T23:44:00.616Z,89.87
2022-11-24T23:46:29.292Z,89.65
2022-11-24T23:48:57.842Z,89.25
2022-11-24T23:51:27.463Z,89.31
2022-11-24T23:53:56.055Z,89.21
2022-11-24T23:56:26.118Z,89.25
2022-11-24T23:58:55.528Z,89.52
